sensor_id;sensor_type;location;lat;lon;timestamp;pressure;altitude;pressure_sealevel;temperature;humidity
41306;BME280;27051;50.376;19.152;2023-06-14T00:01:43;98115.18;;;12.40;57.81
41306;BME280;27051;50.376;19.152;2023-06-14T00:04:09;98117.39;;;12.26;57.99
41306;BME280;27051;50.376;19.152;2023-06-14T00:06:36;98116.50;;;12.21;58.12
41306;BME280;27051;50.376;19.152;2023-06-14T00:09:03;98114.64;;;12.30;58.54
41306;BME280;27051;50.376;19.152;2023-06-14T00:11:33;98107.03;;;12.45;58.60
41306;BME280;27051;50.376;19.152;2023-06-14T00:14:00;98102.84;;;12.53;58.66
41306;BME280;27051;50.376;19.152;2023-06-14T00:16:27;98100.20;;;12.55;58.64
41306;BME280;27051;50.376;19.152;2023-06-14T00:18:53;98107.86;;;12.61;58.91
41306;BME280;27051;50.376;19.152;2023-06-14T00:21:20;98112.48;;;12.72;59.05
41306;BME280;27051;50.376;19.152;2023-06-14T00:23:47;98110.79;;;12.72;59.13
41306;BME280;27051;50.376;19.152;2023-06-14T00:26:14;98111.27;;;12.72;59.11
41306;BME280;27051;50.376;19.152;2023-06-14T00:28:40;98102.60;;;12.71;59.39
41306;BME280;27051;50.376;19.152;2023-06-14T00:31:07;98100.26;;;12.79;59.46
41306;BME280;27051;50.376;19.152;2023-06-14T00:33:34;98099.10;;;12.84;59.53
41306;BME280;27051;50.376;19.152;2023-06-14T00:36:01;98101.42;;;12.88;59.60
41306;BME280;27051;50.376;19.152;2023-06-14T00:38:28;98101.41;;;12.91;59.64
41306;BME280;27051;50.376;19.152;2023-06-14T00:40:54;98096.30;;;13.00;59.70
41306;BME280;27051;50.376;19.152;2023-06-14T00:43:21;98092.98;;;13.08;59.83
41306;BME280;27051;50.376;19.152;2023-06-14T00:45:48;98093.95;;;13.11;59.61
41306;BME280;27051;50.376;19.152;2023-06-14T00:48:15;98094.36;;;13.12;59.73
41306;BME280;27051;50.376;19.152;2023-06-14T00:50:42;98098.04;;;13.11;59.57
41306;BME280;27051;50.376;19.152;2023-06-14T00:53:09;98098.48;;;13.07;59.59
41306;BME280;27051;50.376;19.152;2023-06-14T00:55:39;98100.41;;;12.98;59.81
41306;BME280;27051;50.376;19.152;2023-06-14T00:58:48;98096.86;;;13.03;59.98
41306;BME280;27051;50.376;19.152;2023-06-14T01:01:31;98092.33;;;13.07;59.89
41306;BME280;27051;50.376;19.152;2023-06-14T01:03:59;98088.91;;;13.05;59.95
41306;BME280;27051;50.376;19.152;2023-06-14T01:15:14;98082.02;;;13.23;60.00
41306;BME280;27051;50.376;19.152;2023-06-14T01:17:45;98079.76;;;13.22;60.29
41306;BME280;27051;50.376;19.152;2023-06-14T01:20:12;98079.04;;;13.28;60.00
41306;BME280;27051;50.376;19.152;2023-06-14T01:22:50;98078.35;;;13.17;59.99
41306;BME280;27051;50.376;19.152;2023-06-14T01:25:17;98073.86;;;13.20;60.24
41306;BME280;27051;50.376;19.152;2023-06-14T01:27:44;98075.63;;;13.24;60.18
41306;BME280;27051;50.376;19.152;2023-06-14T01:30:14;98075.85;;;13.15;60.12
41306;BME280;27051;50.376;19.152;2023-06-14T01:32:41;98072.27;;;13.13;60.47
41306;BME280;27051;50.376;19.152;2023-06-14T01:35:22;98073.50;;;13.17;60.57
41306;BME280;27051;50.376;19.152;2023-06-14T01:37:59;98069.69;;;13.20;60.67
41306;BME280;27051;50.376;19.152;2023-06-14T01:40:27;98066.75;;;13.24;60.76
41306;BME280;27051;50.376;19.152;2023-06-14T01:43:21;98072.29;;;13.29;60.61
41306;BME280;27051;50.376;19.152;2023-06-14T01:45:51;98070.38;;;13.27;60.78
41306;BME280;27051;50.376;19.152;2023-06-14T01:48:20;98070.55;;;13.31;60.87
41306;BME280;27051;50.376;19.152;2023-06-14T01:50:49;98069.73;;;13.37;60.94
41306;BME280;27051;50.376;19.152;2023-06-14T01:53:40;98066.23;;;13.45;61.10
41306;BME280;27051;50.376;19.152;2023-06-14T01:56:09;98062.04;;;13.55;61.10
41306;BME280;27051;50.376;19.152;2023-06-14T01:58:41;98068.14;;;13.65;61.14
41306;BME280;27051;50.376;19.152;2023-06-14T02:01:08;98069.48;;;13.72;61.16
41306;BME280;27051;50.376;19.152;2023-06-14T02:04:02;98066.85;;;13.76;61.12
41306;BME280;27051;50.376;19.152;2023-06-14T02:06:38;98066.52;;;13.78;61.09
41306;BME280;27051;50.376;19.152;2023-06-14T02:09:14;98064.56;;;13.82;61.21
41306;BME280;27051;50.376;19.152;2023-06-14T02:11:42;98068.11;;;13.87;61.22
41306;BME280;27051;50.376;19.152;2023-06-14T02:14:09;98067.11;;;13.91;61.25
41306;BME280;27051;50.376;19.152;2023-06-14T02:16:36;98062.44;;;13.94;61.36
41306;BME280;27051;50.376;19.152;2023-06-14T02:19:12;98067.07;;;13.89;61.25
41306;BME280;27051;50.376;19.152;2023-06-14T02:21:39;98063.23;;;13.85;61.35
41306;BME280;27051;50.376;19.152;2023-06-14T02:24:15;98060.49;;;13.88;61.42
41306;BME280;27051;50.376;19.152;2023-06-14T02:26:44;98061.88;;;13.93;61.66
41306;BME280;27051;50.376;19.152;2023-06-14T02:29:21;98057.86;;;13.98;61.57
41306;BME280;27051;50.376;19.152;2023-06-14T02:31:48;98063.64;;;14.01;61.59
41306;BME280;27051;50.376;19.152;2023-06-14T02:34:15;98064.94;;;14.00;61.63
41306;BME280;27051;50.376;19.152;2023-06-14T02:36:42;98065.94;;;14.05;61.79
41306;BME280;27051;50.376;19.152;2023-06-14T02:39:09;98065.67;;;14.07;61.85
41306;BME280;27051;50.376;19.152;2023-06-14T02:41:36;98069.41;;;14.05;61.84
41306;BME280;27051;50.376;19.152;2023-06-14T02:44:03;98066.08;;;14.08;62.03
41306;BME280;27051;50.376;19.152;2023-06-14T02:46:30;98068.63;;;14.09;62.05
41306;BME280;27051;50.376;19.152;2023-06-14T02:48:57;98072.98;;;14.00;62.09
41306;BME280;27051;50.376;19.152;2023-06-14T02:51:23;98069.78;;;13.95;62.16
41306;BME280;27051;50.376;19.152;2023-06-14T02:53:50;98072.44;;;13.96;62.41
41306;BME280;27051;50.376;19.152;2023-06-14T02:56:17;98069.94;;;13.98;62.44
41306;BME280;27051;50.376;19.152;2023-06-14T02:58:44;98067.23;;;13.95;62.46
41306;BME280;27051;50.376;19.152;2023-06-14T03:01:11;98067.31;;;13.99;62.73
41306;BME280;27051;50.376;19.152;2023-06-14T03:03:37;98067.09;;;14.15;62.77
41306;BME280;27051;50.376;19.152;2023-06-14T03:06:04;98062.39;;;14.21;62.65
41306;BME280;27051;50.376;19.152;2023-06-14T03:08:40;98061.84;;;14.25;62.61
41306;BME280;27051;50.376;19.152;2023-06-14T03:11:07;98057.02;;;14.33;62.66
41306;BME280;27051;50.376;19.152;2023-06-14T03:13:35;98061.40;;;14.31;62.58
41306;BME280;27051;50.376;19.152;2023-06-14T03:16:02;98065.86;;;14.31;62.88
41306;BME280;27051;50.376;19.152;2023-06-14T03:18:30;98062.08;;;14.36;62.93
41306;BME280;27051;50.376;19.152;2023-06-14T03:20:57;98059.58;;;14.35;62.88
41306;BME280;27051;50.376;19.152;2023-06-14T03:23:24;98058.09;;;14.33;62.90
41306;BME280;27051;50.376;19.152;2023-06-14T03:25:51;98055.35;;;14.31;63.01
41306;BME280;27051;50.376;19.152;2023-06-14T03:28:18;98052.15;;;14.34;63.20
41306;BME280;27051;50.376;19.152;2023-06-14T03:30:45;98050.33;;;14.42;63.40
41306;BME280;27051;50.376;19.152;2023-06-14T03:33:11;98048.41;;;14.47;63.16
41306;BME280;27051;50.376;19.152;2023-06-14T03:35:38;98051.59;;;14.53;63.12
41306;BME280;27051;50.376;19.152;2023-06-14T03:38:05;98052.89;;;14.47;63.22
41306;BME280;27051;50.376;19.152;2023-06-14T03:40:32;98054.94;;;14.50;63.40
41306;BME280;27051;50.376;19.152;2023-06-14T03:42:58;98061.06;;;14.60;63.62
41306;BME280;27051;50.376;19.152;2023-06-14T03:45:25;98061.83;;;14.67;63.31
41306;BME280;27051;50.376;19.152;2023-06-14T03:47:52;98064.16;;;14.73;63.27
41306;BME280;27051;50.376;19.152;2023-06-14T03:50:19;98068.58;;;14.73;63.28
41306;BME280;27051;50.376;19.152;2023-06-14T03:52:48;98069.06;;;14.70;63.22
41306;BME280;27051;50.376;19.152;2023-06-14T03:55:15;98070.80;;;14.72;63.42
41306;BME280;27051;50.376;19.152;2023-06-14T03:57:41;98071.20;;;14.81;63.35
41306;BME280;27051;50.376;19.152;2023-06-14T04:00:09;98068.94;;;14.85;63.38
41306;BME280;27051;50.376;19.152;2023-06-14T04:02:36;98069.36;;;14.93;63.62
41306;BME280;27051;50.376;19.152;2023-06-14T04:05:03;98068.27;;;15.07;63.55
41306;BME280;27051;50.376;19.152;2023-06-14T04:07:30;98068.97;;;15.20;63.57
41306;BME280;27051;50.376;19.152;2023-06-14T04:10:00;98068.48;;;15.32;63.41
41306;BME280;27051;50.376;19.152;2023-06-14T04:12:27;98074.30;;;15.33;62.99
41306;BME280;27051;50.376;19.152;2023-06-14T04:14:53;98075.27;;;15.37;63.41
41306;BME280;27051;50.376;19.152;2023-06-14T04:17:20;98072.33;;;15.37;63.28
41306;BME280;27051;50.376;19.152;2023-06-14T04:19:47;98072.18;;;15.38;63.42
41306;BME280;27051;50.376;19.152;2023-06-14T04:22:14;98075.45;;;15.41;63.50
41306;BME280;27051;50.376;19.152;2023-06-14T04:24:41;98076.81;;;15.45;63.51
41306;BME280;27051;50.376;19.152;2023-06-14T04:27:08;98076.37;;;15.48;63.42
41306;BME280;27051;50.376;19.152;2023-06-14T04:29:34;98084.10;;;15.46;63.42
41306;BME280;27051;50.376;19.152;2023-06-14T04:32:01;98083.80;;;15.47;63.46
41306;BME280;27051;50.376;19.152;2023-06-14T04:34:29;98080.21;;;15.51;63.36
41306;BME280;27051;50.376;19.152;2023-06-14T04:36:56;98078.22;;;15.53;63.54
41306;BME280;27051;50.376;19.152;2023-06-14T04:39:23;98072.42;;;15.55;63.57
41306;BME280;27051;50.376;19.152;2023-06-14T04:41:50;98073.19;;;15.62;63.38
41306;BME280;27051;50.376;19.152;2023-06-14T04:44:17;98072.95;;;15.68;63.57
41306;BME280;27051;50.376;19.152;2023-06-14T04:46:43;98071.98;;;15.78;63.59
41306;BME280;27051;50.376;19.152;2023-06-14T04:49:10;98069.36;;;15.90;63.65
41306;BME280;27051;50.376;19.152;2023-06-14T04:51:37;98072.61;;;15.99;63.41
41306;BME280;27051;50.376;19.152;2023-06-14T04:54:05;98077.02;;;15.98;63.09
41306;BME280;27051;50.376;19.152;2023-06-14T04:56:34;98072.91;;;15.98;63.19
41306;BME280;27051;50.376;19.152;2023-06-14T04:59:01;98073.95;;;16.02;63.24
41306;BME280;27051;50.376;19.152;2023-06-14T05:01:28;98074.73;;;16.03;63.27
41306;BME280;27051;50.376;19.152;2023-06-14T05:03:55;98072.91;;;16.08;63.44
41306;BME280;27051;50.376;19.152;2023-06-14T05:06:21;98066.31;;;16.16;63.47
41306;BME280;27051;50.376;19.152;2023-06-14T05:08:48;98069.30;;;16.22;63.12
41306;BME280;27051;50.376;19.152;2023-06-14T05:11:15;98072.90;;;16.27;63.31
41306;BME280;27051;50.376;19.152;2023-06-14T05:13:42;98072.84;;;16.32;63.36
41306;BME280;27051;50.376;19.152;2023-06-14T05:16:10;98074.02;;;16.32;63.15
41306;BME280;27051;50.376;19.152;2023-06-14T05:18:37;98075.34;;;16.22;63.15
41306;BME280;27051;50.376;19.152;2023-06-14T05:21:03;98081.66;;;16.18;63.52
41306;BME280;27051;50.376;19.152;2023-06-14T05:23:30;98084.80;;;16.22;63.26
41306;BME280;27051;50.376;19.152;2023-06-14T05:25:57;98081.29;;;16.21;63.32
41306;BME280;27051;50.376;19.152;2023-06-14T05:28:24;98086.11;;;16.22;63.28
41306;BME280;27051;50.376;19.152;2023-06-14T05:30:51;98092.17;;;16.25;63.56
41306;BME280;27051;50.376;19.152;2023-06-14T05:33:18;98095.13;;;16.25;63.40
41306;BME280;27051;50.376;19.152;2023-06-14T05:35:45;98096.74;;;16.24;63.34
41306;BME280;27051;50.376;19.152;2023-06-14T05:38:12;98096.45;;;16.16;63.51
41306;BME280;27051;50.376;19.152;2023-06-14T05:40:38;98106.36;;;16.15;63.34
41306;BME280;27051;50.376;19.152;2023-06-14T05:43:17;98109.45;;;16.15;63.34
41306;BME280;27051;50.376;19.152;2023-06-14T05:45:44;98108.63;;;16.18;63.33
41306;BME280;27051;50.376;19.152;2023-06-14T05:48:11;98109.71;;;16.19;63.14
41306;BME280;27051;50.376;19.152;2023-06-14T05:50:44;98109.61;;;16.15;63.25
41306;BME280;27051;50.376;19.152;2023-06-14T05:53:11;98113.55;;;16.15;63.22
41306;BME280;27051;50.376;19.152;2023-06-14T05:55:45;98113.30;;;16.11;63.14
41306;BME280;27051;50.376;19.152;2023-06-14T05:58:12;98116.27;;;16.06;63.37
41306;BME280;27051;50.376;19.152;2023-06-14T06:00:39;98117.40;;;16.00;63.53
41306;BME280;27051;50.376;19.152;2023-06-14T06:03:06;98117.81;;;16.04;63.65
41306;BME280;27051;50.376;19.152;2023-06-14T06:05:33;98120.14;;;16.03;63.48
41306;BME280;27051;50.376;19.152;2023-06-14T06:08:09;98120.51;;;15.94;63.55
41306;BME280;27051;50.376;19.152;2023-06-14T06:10:36;98123.26;;;15.90;63.80
41306;BME280;27051;50.376;19.152;2023-06-14T06:13:02;98119.89;;;15.86;64.00
41306;BME280;27051;50.376;19.152;2023-06-14T06:15:29;98124.33;;;15.89;63.88
41306;BME280;27051;50.376;19.152;2023-06-14T06:17:56;98122.92;;;15.87;64.16
41306;BME280;27051;50.376;19.152;2023-06-14T06:20:24;98123.85;;;15.94;64.22
41306;BME280;27051;50.376;19.152;2023-06-14T06:22:51;98123.95;;;15.97;64.23
41306;BME280;27051;50.376;19.152;2023-06-14T06:25:17;98123.48;;;15.99;63.93
41306;BME280;27051;50.376;19.152;2023-06-14T06:27:44;98124.36;;;16.00;64.27
41306;BME280;27051;50.376;19.152;2023-06-14T06:30:12;98125.04;;;16.07;64.47
41306;BME280;27051;50.376;19.152;2023-06-14T06:32:40;98128.41;;;16.12;64.31
41306;BME280;27051;50.376;19.152;2023-06-14T06:35:07;98129.27;;;16.23;64.39
41306;BME280;27051;50.376;19.152;2023-06-14T06:37:34;98126.19;;;16.35;64.30
41306;BME280;27051;50.376;19.152;2023-06-14T06:40:00;98130.06;;;16.35;64.21
41306;BME280;27051;50.376;19.152;2023-06-14T06:42:28;98129.69;;;16.47;64.69
41306;BME280;27051;50.376;19.152;2023-06-14T06:44:55;98129.64;;;16.63;64.36
41306;BME280;27051;50.376;19.152;2023-06-14T06:47:27;98125.15;;;16.75;64.28
41306;BME280;27051;50.376;19.152;2023-06-14T06:49:54;98125.15;;;16.86;64.13
41306;BME280;27051;50.376;19.152;2023-06-14T06:52:21;98127.79;;;17.01;64.09
41306;BME280;27051;50.376;19.152;2023-06-14T06:54:48;98129.02;;;17.15;64.20
41306;BME280;27051;50.376;19.152;2023-06-14T06:57:15;98127.88;;;17.25;63.87
41306;BME280;27051;50.376;19.152;2023-06-14T06:59:42;98134.98;;;17.35;63.76
41306;BME280;27051;50.376;19.152;2023-06-14T07:02:09;98138.23;;;17.35;63.42
41306;BME280;27051;50.376;19.152;2023-06-14T07:04:36;98137.84;;;17.32;63.53
41306;BME280;27051;50.376;19.152;2023-06-14T07:07:03;98136.84;;;17.32;63.40
41306;BME280;27051;50.376;19.152;2023-06-14T07:09:30;98140.25;;;17.33;63.51
41306;BME280;27051;50.376;19.152;2023-06-14T07:12:07;98140.19;;;17.35;63.62
41306;BME280;27051;50.376;19.152;2023-06-14T07:14:34;98142.91;;;17.35;63.43
41306;BME280;27051;50.376;19.152;2023-06-14T07:17:00;98139.63;;;17.32;63.15
41306;BME280;27051;50.376;19.152;2023-06-14T07:19:28;98143.41;;;17.28;62.98
41306;BME280;27051;50.376;19.152;2023-06-14T07:21:54;98145.26;;;17.23;63.12
41306;BME280;27051;50.376;19.152;2023-06-14T07:24:21;98145.59;;;17.26;63.26
41306;BME280;27051;50.376;19.152;2023-06-14T07:26:48;98150.38;;;17.40;63.29
41306;BME280;27051;50.376;19.152;2023-06-14T07:29:15;98153.92;;;17.56;63.00
41306;BME280;27051;50.376;19.152;2023-06-14T07:31:42;98153.80;;;17.71;63.06
41306;BME280;27051;50.376;19.152;2023-06-14T07:34:09;98158.13;;;17.84;63.04
41306;BME280;27051;50.376;19.152;2023-06-14T07:36:36;98163.73;;;17.92;62.69
41306;BME280;27051;50.376;19.152;2023-06-14T07:39:06;98164.67;;;18.01;62.93
41306;BME280;27051;50.376;19.152;2023-06-14T07:41:33;98167.03;;;18.17;62.84
41306;BME280;27051;50.376;19.152;2023-06-14T07:44:00;98167.82;;;18.31;62.41
41306;BME280;27051;50.376;19.152;2023-06-14T07:46:27;98169.45;;;18.31;62.03
41306;BME280;27051;50.376;19.152;2023-06-14T07:48:54;98169.21;;;18.22;61.91
41306;BME280;27051;50.376;19.152;2023-06-14T07:51:21;98176.75;;;18.15;62.30
41306;BME280;27051;50.376;19.152;2023-06-14T07:53:48;98175.27;;;18.14;62.24
41306;BME280;27051;50.376;19.152;2023-06-14T07:56:15;98179.84;;;18.13;62.34
41306;BME280;27051;50.376;19.152;2023-06-14T07:58:42;98179.54;;;18.11;62.14
41306;BME280;27051;50.376;19.152;2023-06-14T08:01:09;98179.21;;;17.97;61.99
41306;BME280;27051;50.376;19.152;2023-06-14T08:03:36;98181.52;;;17.87;61.99
41306;BME280;27051;50.376;19.152;2023-06-14T08:06:03;98180.43;;;17.86;62.41
41306;BME280;27051;50.376;19.152;2023-06-14T08:08:30;98178.42;;;17.90;62.30
41306;BME280;27051;50.376;19.152;2023-06-14T08:10:56;98174.45;;;17.86;61.82
41306;BME280;27051;50.376;19.152;2023-06-14T08:13:23;98177.26;;;17.90;61.97
41306;BME280;27051;50.376;19.152;2023-06-14T08:15:50;98174.91;;;17.85;61.63
41306;BME280;27051;50.376;19.152;2023-06-14T08:18:17;98176.34;;;17.78;61.62
41306;BME280;27051;50.376;19.152;2023-06-14T08:20:44;98175.24;;;17.72;61.70
41306;BME280;27051;50.376;19.152;2023-06-14T08:23:10;98176.29;;;17.59;61.84
41306;BME280;27051;50.376;19.152;2023-06-14T08:26:40;98172.92;;;17.50;61.94
41306;BME280;27051;50.376;19.152;2023-06-14T08:29:14;98174.61;;;17.46;62.34
41306;BME280;27051;50.376;19.152;2023-06-14T08:34:36;98178.77;;;17.57;62.22
41306;BME280;27051;50.376;19.152;2023-06-14T08:38:06;98178.90;;;17.70;62.48
41306;BME280;27051;50.376;19.152;2023-06-14T08:40:25;98180.52;;;17.74;62.18
41306;BME280;27051;50.376;19.152;2023-06-14T08:42:57;98182.90;;;17.82;62.15
41306;BME280;27051;50.376;19.152;2023-06-14T08:45:24;98186.96;;;17.90;62.04
41306;BME280;27051;50.376;19.152;2023-06-14T08:48:33;98188.54;;;17.99;62.32
41306;BME280;27051;50.376;19.152;2023-06-14T08:51:00;98188.03;;;18.24;62.03
41306;BME280;27051;50.376;19.152;2023-06-14T08:53:29;98188.96;;;18.32;61.36
41306;BME280;27051;50.376;19.152;2023-06-14T08:56:06;98186.64;;;18.47;61.70
41306;BME280;27051;50.376;19.152;2023-06-14T08:58:43;98192.08;;;18.60;60.61
41306;BME280;27051;50.376;19.152;2023-06-14T09:01:11;98195.73;;;18.57;60.95
41306;BME280;27051;50.376;19.152;2023-06-14T09:03:50;98199.77;;;18.59;60.90
41306;BME280;27051;50.376;19.152;2023-06-14T09:06:17;98207.09;;;18.56;60.54
41306;BME280;27051;50.376;19.152;2023-06-14T09:08:46;98207.77;;;18.40;60.56
41306;BME280;27051;50.376;19.152;2023-06-14T09:11:14;98210.95;;;18.23;60.83
41306;BME280;27051;50.376;19.152;2023-06-14T09:13:42;98212.96;;;18.16;61.16
41306;BME280;27051;50.376;19.152;2023-06-14T09:16:09;98217.32;;;18.15;61.32
41306;BME280;27051;50.376;19.152;2023-06-14T09:21:26;98221.05;;;18.19;61.02
41306;BME280;27051;50.376;19.152;2023-06-14T09:23:55;98217.08;;;18.13;61.22
41306;BME280;27051;50.376;19.152;2023-06-14T09:26:23;98214.75;;;18.21;61.19
41306;BME280;27051;50.376;19.152;2023-06-14T09:28:50;98214.52;;;18.23;60.74
41306;BME280;27051;50.376;19.152;2023-06-14T09:31:26;98218.96;;;18.24;60.77
41306;BME280;27051;50.376;19.152;2023-06-14T09:34:03;98219.59;;;18.30;60.92
41306;BME280;27051;50.376;19.152;2023-06-14T09:36:31;98216.34;;;18.36;60.74
41306;BME280;27051;50.376;19.152;2023-06-14T09:39:02;98211.52;;;18.45;60.81
41306;BME280;27051;50.376;19.152;2023-06-14T09:41:37;98211.98;;;18.58;60.86
41306;BME280;27051;50.376;19.152;2023-06-14T09:44:06;98213.14;;;18.67;60.70
41306;BME280;27051;50.376;19.152;2023-06-14T09:46:41;98212.39;;;18.79;60.32
41306;BME280;27051;50.376;19.152;2023-06-14T09:49:08;98210.60;;;18.84;60.51
41306;BME280;27051;50.376;19.152;2023-06-14T09:54:22;98214.30;;;19.01;60.19
41306;BME280;27051;50.376;19.152;2023-06-14T09:56:51;98209.89;;;19.24;60.33
41306;BME280;27051;50.376;19.152;2023-06-14T09:59:21;98214.99;;;19.58;59.85
41306;BME280;27051;50.376;19.152;2023-06-14T10:01:49;98216.67;;;19.84;59.57
41306;BME280;27051;50.376;19.152;2023-06-14T10:04:19;98219.47;;;19.90;59.25
41306;BME280;27051;50.376;19.152;2023-06-14T10:06:49;98214.30;;;19.92;59.23
41306;BME280;27051;50.376;19.152;2023-06-14T10:09:17;98213.86;;;20.00;58.93
41306;BME280;27051;50.376;19.152;2023-06-14T10:11:45;98214.16;;;20.15;58.91
41306;BME280;27051;50.376;19.152;2023-06-14T10:14:13;98214.60;;;20.43;58.80
41306;BME280;27051;50.376;19.152;2023-06-14T10:17:00;98213.50;;;20.76;58.43
41306;BME280;27051;50.376;19.152;2023-06-14T10:19:47;98215.77;;;20.90;57.64
41306;BME280;27051;50.376;19.152;2023-06-14T10:22:26;98217.14;;;20.87;57.40
41306;BME280;27051;50.376;19.152;2023-06-14T10:24:56;98223.16;;;20.78;57.55
41306;BME280;27051;50.376;19.152;2023-06-14T10:27:31;98223.52;;;20.52;58.04
41306;BME280;27051;50.376;19.152;2023-06-14T10:30:18;98223.48;;;20.43;57.86
41306;BME280;27051;50.376;19.152;2023-06-14T10:33:07;98222.39;;;20.25;57.58
41306;BME280;27051;50.376;19.152;2023-06-14T10:35:44;98225.14;;;20.08;57.69
41306;BME280;27051;50.376;19.152;2023-06-14T10:38:14;98227.63;;;19.91;57.86
41306;BME280;27051;50.376;19.152;2023-06-14T10:40:41;98225.20;;;19.80;58.01
41306;BME280;27051;50.376;19.152;2023-06-14T10:43:22;98224.00;;;19.70;57.73
41306;BME280;27051;50.376;19.152;2023-06-14T10:46:17;98220.92;;;19.57;57.71
41306;BME280;27051;50.376;19.152;2023-06-14T10:48:44;98221.77;;;19.56;57.86
41306;BME280;27051;50.376;19.152;2023-06-14T10:51:19;98224.44;;;19.51;58.04
41306;BME280;27051;50.376;19.152;2023-06-14T10:53:47;98220.00;;;19.52;57.69
41306;BME280;27051;50.376;19.152;2023-06-14T10:56:28;98220.39;;;19.51;58.07
41306;BME280;27051;50.376;19.152;2023-06-14T10:58:58;98223.64;;;19.57;57.95
41306;BME280;27051;50.376;19.152;2023-06-14T11:01:35;98216.38;;;19.61;58.08
41306;BME280;27051;50.376;19.152;2023-06-14T11:04:11;98219.02;;;19.69;58.26
41306;BME280;27051;50.376;19.152;2023-06-14T11:06:49;98218.60;;;19.74;58.04
41306;BME280;27051;50.376;19.152;2023-06-14T11:09:47;98218.14;;;19.73;58.39
41306;BME280;27051;50.376;19.152;2023-06-14T11:12:18;98216.48;;;19.79;58.39
41306;BME280;27051;50.376;19.152;2023-06-14T11:14:46;98214.70;;;19.92;58.49
41306;BME280;27051;50.376;19.152;2023-06-14T11:17:16;98210.52;;;20.00;58.38
41306;BME280;27051;50.376;19.152;2023-06-14T11:19:43;98210.42;;;20.17;58.49
41306;BME280;27051;50.376;19.152;2023-06-14T11:22:14;98206.64;;;20.34;58.29
41306;BME280;27051;50.376;19.152;2023-06-14T11:25:03;98207.98;;;20.55;58.20
41306;BME280;27051;50.376;19.152;2023-06-14T11:27:44;98208.33;;;20.70;57.80
41306;BME280;27051;50.376;19.152;2023-06-14T11:30:11;98207.55;;;20.86;58.07
41306;BME280;27051;50.376;19.152;2023-06-14T11:32:38;98206.21;;;20.95;57.21
41306;BME280;27051;50.376;19.152;2023-06-14T11:35:15;98206.40;;;21.01;57.09
41306;BME280;27051;50.376;19.152;2023-06-14T11:37:43;98199.02;;;21.25;57.13
41306;BME280;27051;50.376;19.152;2023-06-14T11:40:12;98199.05;;;21.70;56.98
41306;BME280;27051;50.376;19.152;2023-06-14T11:42:40;98195.90;;;22.24;55.88
41306;BME280;27051;50.376;19.152;2023-06-14T11:45:09;98195.11;;;22.65;55.28
41306;BME280;27051;50.376;19.152;2023-06-14T11:47:40;98198.34;;;22.85;55.36
41306;BME280;27051;50.376;19.152;2023-06-14T11:50:08;98196.52;;;22.87;55.10
41306;BME280;27051;50.376;19.152;2023-06-14T11:52:37;98192.60;;;22.70;54.46
41306;BME280;27051;50.376;19.152;2023-06-14T11:55:04;98196.09;;;22.48;54.46
41306;BME280;27051;50.376;19.152;2023-06-14T11:57:43;98193.79;;;22.30;54.79
41306;BME280;27051;50.376;19.152;2023-06-14T12:00:14;98195.14;;;22.24;54.97
41306;BME280;27051;50.376;19.152;2023-06-14T12:02:42;98190.66;;;22.19;54.34
41306;BME280;27051;50.376;19.152;2023-06-14T12:05:09;98183.23;;;22.19;54.40
41306;BME280;27051;50.376;19.152;2023-06-14T12:07:37;98182.32;;;22.29;54.30
41306;BME280;27051;50.376;19.152;2023-06-14T12:10:14;98178.95;;;22.93;54.04
41306;BME280;27051;50.376;19.152;2023-06-14T12:12:42;98168.88;;;24.52;52.59
41306;BME280;27051;50.376;19.152;2023-06-14T12:15:09;98164.05;;;26.47;50.62
41306;BME280;27051;50.376;19.152;2023-06-14T12:17:57;98161.11;;;27.57;49.20
41306;BME280;27051;50.376;19.152;2023-06-14T12:20:54;98156.83;;;27.60;48.52
41306;BME280;27051;50.376;19.152;2023-06-14T12:23:21;98161.84;;;27.25;47.84
41306;BME280;27051;50.376;19.152;2023-06-14T12:25:49;98161.27;;;28.08;46.83
41306;BME280;27051;50.376;19.152;2023-06-14T12:28:24;98162.75;;;28.91;46.07
41306;BME280;27051;50.376;19.152;2023-06-14T12:31:06;98167.21;;;29.14;45.08
41306;BME280;27051;50.376;19.152;2023-06-14T12:33:33;98166.27;;;29.32;45.16
41306;BME280;27051;50.376;19.152;2023-06-14T12:36:00;98167.02;;;29.31;43.85
41306;BME280;27051;50.376;19.152;2023-06-14T12:38:29;98163.55;;;29.60;43.53
41306;BME280;27051;50.376;19.152;2023-06-14T12:40:57;98160.02;;;29.32;43.23
41306;BME280;27051;50.376;19.152;2023-06-14T12:43:23;98158.38;;;28.78;43.28
41306;BME280;27051;50.376;19.152;2023-06-14T12:45:51;98157.69;;;28.15;43.45
41306;BME280;27051;50.376;19.152;2023-06-14T12:48:17;98148.21;;;28.19;43.26
41306;BME280;27051;50.376;19.152;2023-06-14T12:50:45;98151.16;;;28.32;42.97
41306;BME280;27051;50.376;19.152;2023-06-14T12:53:12;98150.77;;;28.56;42.66
41306;BME280;27051;50.376;19.152;2023-06-14T12:55:38;98150.01;;;28.65;41.77
41306;BME280;27051;50.376;19.152;2023-06-14T12:58:05;98149.10;;;28.41;41.94
41306;BME280;27051;50.376;19.152;2023-06-14T13:00:31;98148.45;;;28.24;41.59
41306;BME280;27051;50.376;19.152;2023-06-14T13:02:58;98149.05;;;27.91;41.58
41306;BME280;27051;50.376;19.152;2023-06-14T13:05:24;98148.01;;;27.68;42.19
41306;BME280;27051;50.376;19.152;2023-06-14T13:07:51;98144.89;;;27.96;41.66
41306;BME280;27051;50.376;19.152;2023-06-14T13:10:18;98147.79;;;28.87;40.82
41306;BME280;27051;50.376;19.152;2023-06-14T13:12:44;98149.98;;;29.33;40.36
41306;BME280;27051;50.376;19.152;2023-06-14T13:15:11;98146.55;;;30.08;39.87
41306;BME280;27051;50.376;19.152;2023-06-14T13:17:39;98145.94;;;30.22;39.55
41306;BME280;27051;50.376;19.152;2023-06-14T13:20:06;98150.48;;;30.17;38.92
41306;BME280;27051;50.376;19.152;2023-06-14T13:22:34;98148.29;;;30.55;38.65